Pagrindinis puslapis
METAR-TAF:

METAR-TAF

Oro uostai :

Medeljinas, Kolumbija

platuma: 06-13N, ilguma: 075-36W, Aukštis: 1490 m

Dabartinis oras

Ataskaita buvo paskelbta 1 valandą ir 54 minutes, ne 21:00 UTC
Vėjas 2 kt nuo kintamojo kryptimis
Temperatūra 24°C
Drėgmė 61%
Slėgis 1020 hPa
Matomumas 10 km arba daugiau
Išsisklaidę debesys ne aukštis 3000 ft
Apsiniaukę ne aukštis 20000 ft
Liūtis kaimynystėje

METAR: SKMD 302100Z VRB02KT 9999 VCSH SCT030 OVC200 24/16 A3011 RMK VCSH/S

Laikas: 17:54 (22:54 UTC)


TAF: trūkstamas

Orai ataskaitas ir orų prognozės (METAR, TAF).

turimą stotys yra geltonos ir raudonos taškus žemėlapyje.

Perkelti pele per norėdami pamatyti stoties vardą.

Tada spustelėkite, norėdami matyti oro stebėjimo ir prognozės.

Norėdami pakeisti žemėlapį: spustelėkite ant žalios mygtukų su juodo kryžiaus žemyn,; žalią mygtuką su brūkšneliu, jei norite nutolinti; arba žalių rodyklių gretimoms žemėlapius.


METAR-TAF: